Terminal Aerodrome Forecast
Issued by NWS

Home | Current Version | Previous Version | Text Only | Print | Product List | Glossary On
Versions: 1 2 3 4 5 6 7 8 9 10 11 12 13 14 15 16
000
FTUS42 TJSJ 221100
TAFJBQ
TAF
TJBQ 221128Z 2212/2312 VRB04KT P6SM VCSH BKN080
     FM221400 08013KT P6SM SCT025
     FM222250 09008KT P6SM SCT025
      AMD NOT SKED 2302/2311=

USA.gov is the U.S. government's official web portal to all federal, state and local government web resources and services.